sensor_id;sensor_type;location;lat;lon;timestamp;P1;durP1;ratioP1;P2;durP2;ratioP2
82005;SDS011;71529;47.484;19.064;2023-08-24T00:01:57;10.02;;;6.97;;
82005;SDS011;71529;47.484;19.064;2023-08-24T00:04:26;8.65;;;6.55;;
82005;SDS011;71529;47.484;19.064;2023-08-24T00:06:54;8.65;;;6.65;;
82005;SDS011;71529;47.484;19.064;2023-08-24T00:09:23;8.38;;;6.97;;
82005;SDS011;71529;47.484;19.064;2023-08-24T00:11:52;9.35;;;6.95;;
82005;SDS011;71529;47.484;19.064;2023-08-24T00:14:20;12.30;;;7.10;;
82005;SDS011;71529;47.484;19.064;2023-08-24T00:16:49;6.95;;;6.25;;
82005;SDS011;71529;47.484;19.064;2023-08-24T00:19:17;9.52;;;6.88;;
82005;SDS011;71529;47.484;19.064;2023-08-24T00:21:45;10.43;;;6.97;;
82005;SDS011;71529;47.484;19.064;2023-08-24T00:24:13;7.47;;;6.47;;
82005;SDS011;71529;47.484;19.064;2023-08-24T00:26:45;8.03;;;6.33;;
82005;SDS011;71529;47.484;19.064;2023-08-24T00:29:14;10.23;;;6.80;;
82005;SDS011;71529;47.484;19.064;2023-08-24T00:31:42;9.15;;;6.68;;
82005;SDS011;71529;47.484;19.064;2023-08-24T00:34:10;11.23;;;6.40;;
82005;SDS011;71529;47.484;19.064;2023-08-24T00:36:38;7.50;;;6.20;;
82005;SDS011;71529;47.484;19.064;2023-08-24T00:39:07;7.40;;;6.53;;
82005;SDS011;71529;47.484;19.064;2023-08-24T00:41:35;7.43;;;6.25;;
82005;SDS011;71529;47.484;19.064;2023-08-24T00:44:03;7.50;;;6.10;;
82005;SDS011;71529;47.484;19.064;2023-08-24T00:46:35;8.02;;;6.32;;
82005;SDS011;71529;47.484;19.064;2023-08-24T00:49:03;9.13;;;6.90;;
82005;SDS011;71529;47.484;19.064;2023-08-24T00:51:31;9.68;;;6.53;;
82005;SDS011;71529;47.484;19.064;2023-08-24T00:53:59;7.50;;;6.40;;
82005;SDS011;71529;47.484;19.064;2023-08-24T00:56:27;7.53;;;6.07;;
82005;SDS011;71529;47.484;19.064;2023-08-24T00:58:56;7.57;;;6.40;;
82005;SDS011;71529;47.484;19.064;2023-08-24T01:01:25;9.20;;;6.20;;
82005;SDS011;71529;47.484;19.064;2023-08-24T01:03:54;9.35;;;6.70;;
82005;SDS011;71529;47.484;19.064;2023-08-24T01:06:22;8.57;;;6.25;;
82005;SDS011;71529;47.484;19.064;2023-08-24T01:08:50;8.50;;;6.05;;
82005;SDS011;71529;47.484;19.064;2023-08-24T01:11:22;10.32;;;6.38;;
82005;SDS011;71529;47.484;19.064;2023-08-24T01:14:04;12.00;;;6.30;;
82005;SDS011;71529;47.484;19.064;2023-08-24T01:16:41;10.27;;;6.28;;
82005;SDS011;71529;47.484;19.064;2023-08-24T01:19:17;8.88;;;6.47;;
82005;SDS011;71529;47.484;19.064;2023-08-24T01:22:06;6.50;;;5.90;;
82005;SDS011;71529;47.484;19.064;2023-08-24T01:24:44;6.93;;;6.25;;
82005;SDS011;71529;47.484;19.064;2023-08-24T01:29:45;8.98;;;6.38;;
82005;SDS011;71529;47.484;19.064;2023-08-24T01:32:14;7.72;;;6.65;;
82005;SDS011;71529;47.484;19.064;2023-08-24T01:34:42;10.23;;;6.30;;
82005;SDS011;71529;47.484;19.064;2023-08-24T01:37:10;7.30;;;6.13;;
82005;SDS011;71529;47.484;19.064;2023-08-24T01:39:41;10.48;;;6.50;;
82005;SDS011;71529;47.484;19.064;2023-08-24T01:42:18;7.30;;;5.95;;
82005;SDS011;71529;47.484;19.064;2023-08-24T01:44:50;8.05;;;6.47;;
82005;SDS011;71529;47.484;19.064;2023-08-24T01:47:22;9.68;;;6.25;;
82005;SDS011;71529;47.484;19.064;2023-08-24T01:49:51;7.40;;;5.88;;
82005;SDS011;71529;47.484;19.064;2023-08-24T01:52:19;8.95;;;6.57;;
82005;SDS011;71529;47.484;19.064;2023-08-24T01:54:49;6.60;;;5.82;;
82005;SDS011;71529;47.484;19.064;2023-08-24T01:57:19;9.18;;;6.22;;
82005;SDS011;71529;47.484;19.064;2023-08-24T01:59:47;8.68;;;6.25;;
82005;SDS011;71529;47.484;19.064;2023-08-24T02:02:15;7.45;;;6.38;;
82005;SDS011;71529;47.484;19.064;2023-08-24T02:04:43;10.88;;;5.75;;
82005;SDS011;71529;47.484;19.064;2023-08-24T02:07:11;8.50;;;6.63;;
82005;SDS011;71529;47.484;19.064;2023-08-24T02:09:39;8.57;;;5.53;;
82005;SDS011;71529;47.484;19.064;2023-08-24T02:12:07;7.78;;;6.10;;
82005;SDS011;71529;47.484;19.064;2023-08-24T02:14:37;9.55;;;6.05;;
82005;SDS011;71529;47.484;19.064;2023-08-24T02:17:05;9.68;;;6.65;;
82005;SDS011;71529;47.484;19.064;2023-08-24T02:19:33;6.53;;;5.85;;
82005;SDS011;71529;47.484;19.064;2023-08-24T02:22:01;6.88;;;5.82;;
82005;SDS011;71529;47.484;19.064;2023-08-24T02:24:30;9.05;;;5.72;;
82005;SDS011;71529;47.484;19.064;2023-08-24T02:26:59;7.30;;;6.60;;
82005;SDS011;71529;47.484;19.064;2023-08-24T02:29:27;9.82;;;5.82;;
82005;SDS011;71529;47.484;19.064;2023-08-24T02:31:57;6.38;;;5.75;;
82005;SDS011;71529;47.484;19.064;2023-08-24T02:34:26;6.40;;;5.75;;
82005;SDS011;71529;47.484;19.064;2023-08-24T02:36:54;6.65;;;5.97;;
82005;SDS011;71529;47.484;19.064;2023-08-24T02:39:22;8.77;;;6.32;;
82005;SDS011;71529;47.484;19.064;2023-08-24T02:41:50;8.25;;;6.68;;
82005;SDS011;71529;47.484;19.064;2023-08-24T02:44:18;7.05;;;6.30;;
82005;SDS011;71529;47.484;19.064;2023-08-24T02:46:47;11.10;;;7.05;;
82005;SDS011;71529;47.484;19.064;2023-08-24T02:49:17;7.88;;;6.90;;
82005;SDS011;71529;47.484;19.064;2023-08-24T02:51:45;9.32;;;6.45;;
82005;SDS011;71529;47.484;19.064;2023-08-24T02:54:13;13.88;;;6.25;;
82005;SDS011;71529;47.484;19.064;2023-08-24T02:56:42;7.22;;;5.63;;
82005;SDS011;71529;47.484;19.064;2023-08-24T02:59:10;8.00;;;5.80;;
82005;SDS011;71529;47.484;19.064;2023-08-24T03:01:38;9.13;;;6.55;;
82005;SDS011;71529;47.484;19.064;2023-08-24T03:04:07;11.02;;;6.45;;
82005;SDS011;71529;47.484;19.064;2023-08-24T03:06:37;10.75;;;6.50;;
82005;SDS011;71529;47.484;19.064;2023-08-24T03:09:05;9.70;;;6.30;;
82005;SDS011;71529;47.484;19.064;2023-08-24T03:11:33;7.53;;;5.93;;
82005;SDS011;71529;47.484;19.064;2023-08-24T03:14:01;9.18;;;6.10;;
82005;SDS011;71529;47.484;19.064;2023-08-24T03:16:29;9.18;;;6.78;;
82005;SDS011;71529;47.484;19.064;2023-08-24T03:18:57;9.73;;;6.40;;
82005;SDS011;71529;47.484;19.064;2023-08-24T03:21:25;9.13;;;6.45;;
82005;SDS011;71529;47.484;19.064;2023-08-24T03:23:54;7.40;;;6.63;;
82005;SDS011;71529;47.484;19.064;2023-08-24T03:26:23;6.65;;;5.60;;
82005;SDS011;71529;47.484;19.064;2023-08-24T03:28:51;9.63;;;6.18;;
82005;SDS011;71529;47.484;19.064;2023-08-24T03:31:19;13.20;;;6.90;;
82005;SDS011;71529;47.484;19.064;2023-08-24T03:33:47;9.95;;;6.43;;
82005;SDS011;71529;47.484;19.064;2023-08-24T03:36:15;6.85;;;6.10;;
82005;SDS011;71529;47.484;19.064;2023-08-24T03:38:43;8.63;;;6.35;;
82005;SDS011;71529;47.484;19.064;2023-08-24T03:41:13;9.23;;;6.68;;
82005;SDS011;71529;47.484;19.064;2023-08-24T03:43:40;8.00;;;6.22;;
82005;SDS011;71529;47.484;19.064;2023-08-24T03:46:08;8.40;;;5.88;;
82005;SDS011;71529;47.484;19.064;2023-08-24T03:48:37;7.85;;;5.97;;
82005;SDS011;71529;47.484;19.064;2023-08-24T03:51:05;9.40;;;7.03;;
82005;SDS011;71529;47.484;19.064;2023-08-24T03:53:32;9.82;;;8.00;;
82005;SDS011;71529;47.484;19.064;2023-08-24T03:56:00;8.27;;;7.43;;
82005;SDS011;71529;47.484;19.064;2023-08-24T03:58:30;7.85;;;6.82;;
82005;SDS011;71529;47.484;19.064;2023-08-24T04:00:58;8.55;;;6.90;;
82005;SDS011;71529;47.484;19.064;2023-08-24T04:03:26;7.60;;;6.78;;
82005;SDS011;71529;47.484;19.064;2023-08-24T04:05:58;7.90;;;7.00;;
82005;SDS011;71529;47.484;19.064;2023-08-24T04:08:26;8.45;;;6.97;;
82005;SDS011;71529;47.484;19.064;2023-08-24T04:10:54;7.32;;;6.32;;
82005;SDS011;71529;47.484;19.064;2023-08-24T04:13:22;9.57;;;6.78;;
82005;SDS011;71529;47.484;19.064;2023-08-24T04:15:51;11.18;;;7.10;;
82005;SDS011;71529;47.484;19.064;2023-08-24T04:18:19;7.28;;;6.50;;
82005;SDS011;71529;47.484;19.064;2023-08-24T04:20:48;10.38;;;7.22;;
82005;SDS011;71529;47.484;19.064;2023-08-24T04:23:16;13.05;;;6.30;;
82005;SDS011;71529;47.484;19.064;2023-08-24T04:25:44;8.02;;;6.65;;
82005;SDS011;71529;47.484;19.064;2023-08-24T04:28:12;8.63;;;6.47;;
82005;SDS011;71529;47.484;19.064;2023-08-24T04:30:40;7.95;;;6.47;;
82005;SDS011;71529;47.484;19.064;2023-08-24T04:33:09;10.05;;;6.55;;
82005;SDS011;71529;47.484;19.064;2023-08-24T04:35:37;10.25;;;7.00;;
82005;SDS011;71529;47.484;19.064;2023-08-24T04:38:04;14.52;;;7.63;;
82005;SDS011;71529;47.484;19.064;2023-08-24T04:40:44;10.18;;;7.35;;
82005;SDS011;71529;47.484;19.064;2023-08-24T04:43:13;10.85;;;7.25;;
82005;SDS011;71529;47.484;19.064;2023-08-24T04:45:41;10.15;;;7.88;;
82005;SDS011;71529;47.484;19.064;2023-08-24T04:48:11;10.07;;;7.50;;
82005;SDS011;71529;47.484;19.064;2023-08-24T04:50:39;11.27;;;8.02;;
82005;SDS011;71529;47.484;19.064;2023-08-24T04:53:07;10.57;;;7.53;;
82005;SDS011;71529;47.484;19.064;2023-08-24T04:55:35;10.27;;;7.97;;
82005;SDS011;71529;47.484;19.064;2023-08-24T04:58:03;10.57;;;7.70;;
82005;SDS011;71529;47.484;19.064;2023-08-24T05:00:31;8.10;;;7.18;;
82005;SDS011;71529;47.484;19.064;2023-08-24T05:02:59;9.48;;;7.35;;
82005;SDS011;71529;47.484;19.064;2023-08-24T05:05:29;10.00;;;8.07;;
82005;SDS011;71529;47.484;19.064;2023-08-24T05:07:58;10.88;;;8.70;;
82005;SDS011;71529;47.484;19.064;2023-08-24T05:10:29;12.27;;;8.70;;
82005;SDS011;71529;47.484;19.064;2023-08-24T05:12:58;13.93;;;8.20;;
82005;SDS011;71529;47.484;19.064;2023-08-24T05:15:26;11.88;;;7.72;;
82005;SDS011;71529;47.484;19.064;2023-08-24T05:17:55;11.60;;;8.25;;
82005;SDS011;71529;47.484;19.064;2023-08-24T05:20:26;14.48;;;8.18;;
82005;SDS011;71529;47.484;19.064;2023-08-24T05:22:56;11.35;;;8.07;;
82005;SDS011;71529;47.484;19.064;2023-08-24T05:25:24;13.93;;;8.38;;
82005;SDS011;71529;47.484;19.064;2023-08-24T05:27:52;12.57;;;8.10;;
82005;SDS011;71529;47.484;19.064;2023-08-24T05:30:20;8.88;;;7.78;;
82005;SDS011;71529;47.484;19.064;2023-08-24T05:32:48;9.45;;;7.35;;
82005;SDS011;71529;47.484;19.064;2023-08-24T05:35:16;11.20;;;9.00;;
82005;SDS011;71529;47.484;19.064;2023-08-24T05:37:45;13.73;;;8.10;;
82005;SDS011;71529;47.484;19.064;2023-08-24T05:40:14;9.90;;;8.48;;
82005;SDS011;71529;47.484;19.064;2023-08-24T05:42:42;11.88;;;8.95;;
82005;SDS011;71529;47.484;19.064;2023-08-24T05:45:10;14.32;;;9.98;;
82005;SDS011;71529;47.484;19.064;2023-08-24T05:47:39;12.80;;;10.70;;
82005;SDS011;71529;47.484;19.064;2023-08-24T05:50:07;11.45;;;9.75;;
82005;SDS011;71529;47.484;19.064;2023-08-24T05:52:38;9.80;;;8.18;;
82005;SDS011;71529;47.484;19.064;2023-08-24T05:55:06;17.40;;;8.38;;
82005;SDS011;71529;47.484;19.064;2023-08-24T05:57:36;10.65;;;8.00;;
82005;SDS011;71529;47.484;19.064;2023-08-24T06:00:04;9.15;;;7.80;;
82005;SDS011;71529;47.484;19.064;2023-08-24T06:02:36;12.73;;;8.18;;
82005;SDS011;71529;47.484;19.064;2023-08-24T06:05:05;15.43;;;9.00;;
82005;SDS011;71529;47.484;19.064;2023-08-24T06:07:35;13.85;;;8.68;;
82005;SDS011;71529;47.484;19.064;2023-08-24T06:10:04;13.18;;;9.38;;
82005;SDS011;71529;47.484;19.064;2023-08-24T06:12:33;12.43;;;8.70;;
82005;SDS011;71529;47.484;19.064;2023-08-24T06:15:03;13.45;;;8.90;;
82005;SDS011;71529;47.484;19.064;2023-08-24T06:17:34;12.10;;;9.10;;
82005;SDS011;71529;47.484;19.064;2023-08-24T06:20:03;15.57;;;8.82;;
82005;SDS011;71529;47.484;19.064;2023-08-24T06:22:31;12.32;;;8.30;;
82005;SDS011;71529;47.484;19.064;2023-08-24T06:24:59;11.93;;;8.52;;
82005;SDS011;71529;47.484;19.064;2023-08-24T06:27:28;10.43;;;8.23;;
82005;SDS011;71529;47.484;19.064;2023-08-24T06:29:57;10.82;;;8.73;;
82005;SDS011;71529;47.484;19.064;2023-08-24T06:32:25;12.20;;;8.18;;
82005;SDS011;71529;47.484;19.064;2023-08-24T06:34:53;14.93;;;9.45;;
82005;SDS011;71529;47.484;19.064;2023-08-24T06:37:22;14.07;;;9.75;;
82005;SDS011;71529;47.484;19.064;2023-08-24T06:39:49;14.60;;;9.13;;
82005;SDS011;71529;47.484;19.064;2023-08-24T06:42:18;13.98;;;8.95;;
82005;SDS011;71529;47.484;19.064;2023-08-24T06:44:46;13.23;;;8.98;;
82005;SDS011;71529;47.484;19.064;2023-08-24T06:47:17;12.45;;;9.13;;
82005;SDS011;71529;47.484;19.064;2023-08-24T06:49:46;18.20;;;9.27;;
82005;SDS011;71529;47.484;19.064;2023-08-24T06:52:14;14.65;;;9.25;;
82005;SDS011;71529;47.484;19.064;2023-08-24T06:54:42;13.13;;;9.60;;
82005;SDS011;71529;47.484;19.064;2023-08-24T06:57:10;16.17;;;10.45;;
82005;SDS011;71529;47.484;19.064;2023-08-24T06:59:38;15.18;;;10.05;;
82005;SDS011;71529;47.484;19.064;2023-08-24T07:02:06;14.90;;;9.55;;
82005;SDS011;71529;47.484;19.064;2023-08-24T07:04:35;15.20;;;9.73;;
82005;SDS011;71529;47.484;19.064;2023-08-24T07:07:05;14.88;;;10.38;;
82005;SDS011;71529;47.484;19.064;2023-08-24T07:09:33;18.42;;;10.13;;
82005;SDS011;71529;47.484;19.064;2023-08-24T07:12:02;19.05;;;10.68;;
82005;SDS011;71529;47.484;19.064;2023-08-24T07:14:33;16.50;;;9.73;;
82005;SDS011;71529;47.484;19.064;2023-08-24T07:17:01;13.23;;;9.10;;
82005;SDS011;71529;47.484;19.064;2023-08-24T07:19:29;13.63;;;8.52;;
82005;SDS011;71529;47.484;19.064;2023-08-24T07:21:58;9.93;;;8.50;;
82005;SDS011;71529;47.484;19.064;2023-08-24T07:24:27;15.07;;;8.40;;
82005;SDS011;71529;47.484;19.064;2023-08-24T07:27:10;10.63;;;8.63;;
82005;SDS011;71529;47.484;19.064;2023-08-24T07:29:38;10.07;;;8.52;;
82005;SDS011;71529;47.484;19.064;2023-08-24T07:32:06;10.75;;;8.43;;
82005;SDS011;71529;47.484;19.064;2023-08-24T07:34:34;15.52;;;9.85;;
82005;SDS011;71529;47.484;19.064;2023-08-24T07:37:04;15.13;;;10.15;;
82005;SDS011;71529;47.484;19.064;2023-08-24T07:39:32;14.65;;;11.40;;
82005;SDS011;71529;47.484;19.064;2023-08-24T07:42:01;18.05;;;10.85;;
82005;SDS011;71529;47.484;19.064;2023-08-24T07:44:29;14.68;;;10.40;;
82005;SDS011;71529;47.484;19.064;2023-08-24T07:46:57;14.63;;;11.27;;
82005;SDS011;71529;47.484;19.064;2023-08-24T07:49:25;13.32;;;10.63;;
82005;SDS011;71529;47.484;19.064;2023-08-24T07:51:53;14.65;;;10.73;;
82005;SDS011;71529;47.484;19.064;2023-08-24T07:54:23;15.55;;;10.95;;
82005;SDS011;71529;47.484;19.064;2023-08-24T07:56:51;20.55;;;9.98;;
82005;SDS011;71529;47.484;19.064;2023-08-24T07:59:20;14.75;;;9.55;;
82005;SDS011;71529;47.484;19.064;2023-08-24T08:01:48;19.85;;;10.23;;
82005;SDS011;71529;47.484;19.064;2023-08-24T08:04:17;14.93;;;10.40;;
82005;SDS011;71529;47.484;19.064;2023-08-24T08:06:47;18.23;;;10.02;;
82005;SDS011;71529;47.484;19.064;2023-08-24T08:09:15;13.45;;;9.40;;
82005;SDS011;71529;47.484;19.064;2023-08-24T08:11:45;24.63;;;10.70;;
82005;SDS011;71529;47.484;19.064;2023-08-24T08:14:13;20.70;;;11.05;;
82005;SDS011;71529;47.484;19.064;2023-08-24T08:16:41;14.55;;;10.88;;
82005;SDS011;71529;47.484;19.064;2023-08-24T08:19:09;21.98;;;12.00;;
82005;SDS011;71529;47.484;19.064;2023-08-24T08:21:37;19.15;;;12.00;;
82005;SDS011;71529;47.484;19.064;2023-08-24T08:24:05;18.83;;;11.63;;
82005;SDS011;71529;47.484;19.064;2023-08-24T08:26:33;14.75;;;11.02;;
82005;SDS011;71529;47.484;19.064;2023-08-24T08:29:03;14.10;;;11.82;;
82005;SDS011;71529;47.484;19.064;2023-08-24T08:31:31;17.45;;;11.02;;
82005;SDS011;71529;47.484;19.064;2023-08-24T08:34:00;21.88;;;11.85;;
82005;SDS011;71529;47.484;19.064;2023-08-24T08:36:30;18.25;;;12.30;;
82005;SDS011;71529;47.484;19.064;2023-08-24T08:38:59;15.25;;;11.98;;
82005;SDS011;71529;47.484;19.064;2023-08-24T08:41:31;16.60;;;11.65;;
82005;SDS011;71529;47.484;19.064;2023-08-24T08:44:07;20.73;;;11.95;;
82005;SDS011;71529;47.484;19.064;2023-08-24T08:46:37;19.23;;;12.00;;
82005;SDS011;71529;47.484;19.064;2023-08-24T08:49:06;17.42;;;11.65;;
82005;SDS011;71529;47.484;19.064;2023-08-24T08:51:36;20.70;;;11.80;;
82005;SDS011;71529;47.484;19.064;2023-08-24T08:54:04;15.60;;;12.20;;
82005;SDS011;71529;47.484;19.064;2023-08-24T08:56:33;19.00;;;11.60;;
82005;SDS011;71529;47.484;19.064;2023-08-24T08:59:01;15.68;;;11.02;;
82005;SDS011;71529;47.484;19.064;2023-08-24T09:01:36;15.25;;;11.05;;
82005;SDS011;71529;47.484;19.064;2023-08-24T09:04:05;25.02;;;17.13;;
82005;SDS011;71529;47.484;19.064;2023-08-24T09:06:34;23.10;;;16.50;;
82005;SDS011;71529;47.484;19.064;2023-08-24T09:09:04;32.22;;;21.60;;
82005;SDS011;71529;47.484;19.064;2023-08-24T09:11:32;31.55;;;22.33;;
82005;SDS011;71529;47.484;19.064;2023-08-24T09:14:00;24.45;;;19.17;;
82005;SDS011;71529;47.484;19.064;2023-08-24T09:16:29;31.33;;;21.52;;
82005;SDS011;71529;47.484;19.064;2023-08-24T09:18:59;21.95;;;16.40;;
82005;SDS011;71529;47.484;19.064;2023-08-24T09:21:27;26.65;;;17.48;;
82005;SDS011;71529;47.484;19.064;2023-08-24T09:23:55;22.88;;;16.02;;
82005;SDS011;71529;47.484;19.064;2023-08-24T09:26:29;21.52;;;16.27;;
82005;SDS011;71529;47.484;19.064;2023-08-24T09:28:58;22.55;;;16.27;;
82005;SDS011;71529;47.484;19.064;2023-08-24T09:31:34;19.23;;;15.73;;
82005;SDS011;71529;47.484;19.064;2023-08-24T09:34:05;23.00;;;16.98;;
82005;SDS011;71529;47.484;19.064;2023-08-24T09:36:33;25.25;;;19.20;;
82005;SDS011;71529;47.484;19.064;2023-08-24T09:39:02;30.92;;;21.85;;
82005;SDS011;71529;47.484;19.064;2023-08-24T09:41:38;26.65;;;18.77;;
82005;SDS011;71529;47.484;19.064;2023-08-24T09:44:06;26.48;;;18.42;;
82005;SDS011;71529;47.484;19.064;2023-08-24T09:46:35;24.48;;;18.27;;
82005;SDS011;71529;47.484;19.064;2023-08-24T09:49:06;25.58;;;19.13;;
82005;SDS011;71529;47.484;19.064;2023-08-24T09:51:35;26.88;;;18.65;;
82005;SDS011;71529;47.484;19.064;2023-08-24T09:54:04;24.50;;;20.27;;
82005;SDS011;71529;47.484;19.064;2023-08-24T09:56:36;25.55;;;19.77;;
82005;SDS011;71529;47.484;19.064;2023-08-24T09:59:07;26.65;;;17.98;;
82005;SDS011;71529;47.484;19.064;2023-08-24T10:01:40;22.60;;;18.38;;
82005;SDS011;71529;47.484;19.064;2023-08-24T10:04:13;27.25;;;17.83;;
82005;SDS011;71529;47.484;19.064;2023-08-24T10:06:42;18.95;;;13.57;;
82005;SDS011;71529;47.484;19.064;2023-08-24T10:09:19;17.10;;;12.88;;
82005;SDS011;71529;47.484;19.064;2023-08-24T10:11:54;19.70;;;14.80;;
82005;SDS011;71529;47.484;19.064;2023-08-24T10:14:26;17.10;;;12.95;;
82005;SDS011;71529;47.484;19.064;2023-08-24T10:16:58;16.70;;;13.30;;
82005;SDS011;71529;47.484;19.064;2023-08-24T10:19:28;20.33;;;14.02;;
82005;SDS011;71529;47.484;19.064;2023-08-24T10:21:57;20.85;;;13.88;;
82005;SDS011;71529;47.484;19.064;2023-08-24T10:24:29;18.35;;;14.07;;
82005;SDS011;71529;47.484;19.064;2023-08-24T10:26:59;21.95;;;13.82;;
82005;SDS011;71529;47.484;19.064;2023-08-24T10:29:28;22.13;;;15.02;;
82005;SDS011;71529;47.484;19.064;2023-08-24T10:31:57;24.98;;;15.55;;
82005;SDS011;71529;47.484;19.064;2023-08-24T10:34:26;21.48;;;13.88;;
82005;SDS011;71529;47.484;19.064;2023-08-24T10:36:55;20.23;;;13.90;;
82005;SDS011;71529;47.484;19.064;2023-08-24T10:39:27;16.35;;;14.20;;
82005;SDS011;71529;47.484;19.064;2023-08-24T10:41:55;17.98;;;13.85;;
82005;SDS011;71529;47.484;19.064;2023-08-24T10:44:24;14.05;;;11.68;;
82005;SDS011;71529;47.484;19.064;2023-08-24T10:47:05;17.98;;;12.52;;
82005;SDS011;71529;47.484;19.064;2023-08-24T10:49:33;14.90;;;10.38;;
82005;SDS011;71529;47.484;19.064;2023-08-24T10:52:17;15.50;;;10.90;;
82005;SDS011;71529;47.484;19.064;2023-08-24T10:54:49;13.65;;;10.27;;
82005;SDS011;71529;47.484;19.064;2023-08-24T10:57:22;16.77;;;11.88;;
82005;SDS011;71529;47.484;19.064;2023-08-24T10:59:58;14.07;;;10.23;;
82005;SDS011;71529;47.484;19.064;2023-08-24T11:02:27;13.95;;;9.90;;
82005;SDS011;71529;47.484;19.064;2023-08-24T11:05:04;11.63;;;6.93;;
82005;SDS011;71529;47.484;19.064;2023-08-24T11:07:34;10.63;;;6.57;;
82005;SDS011;71529;47.484;19.064;2023-08-24T11:10:15;11.85;;;7.55;;
82005;SDS011;71529;47.484;19.064;2023-08-24T11:15:36;11.45;;;7.35;;
82005;SDS011;71529;47.484;19.064;2023-08-24T11:18:21;13.98;;;8.43;;
82005;SDS011;71529;47.484;19.064;2023-08-24T11:20:52;11.75;;;7.50;;
82005;SDS011;71529;47.484;19.064;2023-08-24T11:23:23;12.10;;;6.70;;
82005;SDS011;71529;47.484;19.064;2023-08-24T11:25:53;10.10;;;6.63;;
82005;SDS011;71529;47.484;19.064;2023-08-24T11:28:25;13.38;;;7.03;;
82005;SDS011;71529;47.484;19.064;2023-08-24T11:30:55;14.13;;;10.05;;
82005;SDS011;71529;47.484;19.064;2023-08-24T11:33:27;8.00;;;5.88;;
82005;SDS011;71529;47.484;19.064;2023-08-24T11:35:56;7.05;;;6.32;;
82005;SDS011;71529;47.484;19.064;2023-08-24T11:38:26;9.65;;;6.35;;
82005;SDS011;71529;47.484;19.064;2023-08-24T11:41:10;10.80;;;6.75;;
82005;SDS011;71529;47.484;19.064;2023-08-24T11:43:38;12.25;;;6.32;;
82005;SDS011;71529;47.484;19.064;2023-08-24T11:46:06;8.80;;;6.18;;
82005;SDS011;71529;47.484;19.064;2023-08-24T11:48:34;10.32;;;5.78;;
82005;SDS011;71529;47.484;19.064;2023-08-24T11:51:03;8.63;;;5.20;;
82005;SDS011;71529;47.484;19.064;2023-08-24T11:53:38;14.18;;;5.40;;
82005;SDS011;71529;47.484;19.064;2023-08-24T11:56:07;17.33;;;12.88;;
82005;SDS011;71529;47.484;19.064;2023-08-24T11:58:37;11.30;;;6.78;;
82005;SDS011;71529;47.484;19.064;2023-08-24T12:01:05;7.82;;;6.72;;
82005;SDS011;71529;47.484;19.064;2023-08-24T12:03:34;11.60;;;5.85;;
82005;SDS011;71529;47.484;19.064;2023-08-24T12:06:09;5.65;;;5.03;;
82005;SDS011;71529;47.484;19.064;2023-08-24T12:08:40;9.15;;;5.55;;
82005;SDS011;71529;47.484;19.064;2023-08-24T12:11:10;12.48;;;6.43;;
82005;SDS011;71529;47.484;19.064;2023-08-24T12:13:42;17.23;;;6.50;;
82005;SDS011;71529;47.484;19.064;2023-08-24T12:16:12;10.40;;;7.03;;
82005;SDS011;71529;47.484;19.064;2023-08-24T12:18:47;11.88;;;8.15;;
82005;SDS011;71529;47.484;19.064;2023-08-24T12:21:18;16.48;;;7.95;;
82005;SDS011;71529;47.484;19.064;2023-08-24T12:23:58;21.52;;;8.30;;
82005;SDS011;71529;47.484;19.064;2023-08-24T12:26:27;15.98;;;8.13;;
82005;SDS011;71529;47.484;19.064;2023-08-24T12:28:59;26.33;;;9.63;;
82005;SDS011;71529;47.484;19.064;2023-08-24T12:31:29;24.15;;;11.93;;
82005;SDS011;71529;47.484;19.064;2023-08-24T12:33:58;25.52;;;12.40;;
82005;SDS011;71529;47.484;19.064;2023-08-24T12:36:28;13.57;;;8.50;;
82005;SDS011;71529;47.484;19.064;2023-08-24T12:38:56;20.60;;;9.43;;
82005;SDS011;71529;47.484;19.064;2023-08-24T12:41:26;17.90;;;10.30;;
82005;SDS011;71529;47.484;19.064;2023-08-24T12:43:54;20.48;;;11.25;;
82005;SDS011;71529;47.484;19.064;2023-08-24T12:46:23;22.42;;;11.30;;
82005;SDS011;71529;47.484;19.064;2023-08-24T12:48:51;18.67;;;11.57;;
82005;SDS011;71529;47.484;19.064;2023-08-24T12:51:22;21.45;;;13.30;;
82005;SDS011;71529;47.484;19.064;2023-08-24T12:53:51;26.40;;;15.70;;
82005;SDS011;71529;47.484;19.064;2023-08-24T12:56:20;25.88;;;14.60;;
82005;SDS011;71529;47.484;19.064;2023-08-24T12:58:48;13.32;;;9.80;;
82005;SDS011;71529;47.484;19.064;2023-08-24T13:01:17;12.23;;;9.10;;
82005;SDS011;71529;47.484;19.064;2023-08-24T13:03:45;13.43;;;11.45;;
82005;SDS011;71529;47.484;19.064;2023-08-24T13:06:13;16.88;;;13.45;;
82005;SDS011;71529;47.484;19.064;2023-08-24T13:08:50;11.10;;;10.00;;
82005;SDS011;71529;47.484;19.064;2023-08-24T13:11:18;15.48;;;10.60;;
82005;SDS011;71529;47.484;19.064;2023-08-24T13:13:48;15.30;;;9.85;;
82005;SDS011;71529;47.484;19.064;2023-08-24T13:16:16;18.40;;;10.98;;
82005;SDS011;71529;47.484;19.064;2023-08-24T13:18:44;20.35;;;13.80;;
82005;SDS011;71529;47.484;19.064;2023-08-24T13:21:12;16.05;;;9.80;;
82005;SDS011;71529;47.484;19.064;2023-08-24T13:23:43;14.00;;;10.93;;
82005;SDS011;71529;47.484;19.064;2023-08-24T13:26:16;16.50;;;12.23;;
82005;SDS011;71529;47.484;19.064;2023-08-24T13:28:45;18.83;;;10.95;;
82005;SDS011;71529;47.484;19.064;2023-08-24T13:31:15;15.38;;;11.18;;
82005;SDS011;71529;47.484;19.064;2023-08-24T13:33:43;10.80;;;8.02;;
82005;SDS011;71529;47.484;19.064;2023-08-24T13:36:12;8.70;;;5.97;;
82005;SDS011;71529;47.484;19.064;2023-08-24T13:38:40;14.18;;;9.90;;
82005;SDS011;71529;47.484;19.064;2023-08-24T13:41:08;11.68;;;7.55;;
82005;SDS011;71529;47.484;19.064;2023-08-24T13:43:36;13.70;;;8.25;;
82005;SDS011;71529;47.484;19.064;2023-08-24T13:46:06;11.70;;;7.15;;
82005;SDS011;71529;47.484;19.064;2023-08-24T13:48:35;10.50;;;7.68;;
82005;SDS011;71529;47.484;19.064;2023-08-24T13:51:04;14.18;;;11.07;;
82005;SDS011;71529;47.484;19.064;2023-08-24T13:53:32;15.52;;;11.23;;
82005;SDS011;71529;47.484;19.064;2023-08-24T13:56:00;13.30;;;10.85;;
82005;SDS011;71529;47.484;19.064;2023-08-24T13:58:28;16.08;;;8.32;;
82005;SDS011;71529;47.484;19.064;2023-08-24T14:00:56;10.35;;;8.23;;
82005;SDS011;71529;47.484;19.064;2023-08-24T14:03:24;12.45;;;8.07;;
82005;SDS011;71529;47.484;19.064;2023-08-24T14:05:56;12.82;;;6.35;;
82005;SDS011;71529;47.484;19.064;2023-08-24T14:08:24;10.77;;;7.68;;
82005;SDS011;71529;47.484;19.064;2023-08-24T14:10:52;10.85;;;8.02;;
82005;SDS011;71529;47.484;19.064;2023-08-24T14:13:20;12.02;;;8.13;;
82005;SDS011;71529;47.484;19.064;2023-08-24T14:15:49;7.35;;;5.60;;
82005;SDS011;71529;47.484;19.064;2023-08-24T14:18:18;10.35;;;7.20;;
82005;SDS011;71529;47.484;19.064;2023-08-24T14:20:47;11.88;;;7.43;;
82005;SDS011;71529;47.484;19.064;2023-08-24T14:23:16;7.75;;;5.90;;
82005;SDS011;71529;47.484;19.064;2023-08-24T14:25:45;7.60;;;5.50;;
82005;SDS011;71529;47.484;19.064;2023-08-24T14:28:20;7.35;;;6.20;;
82005;SDS011;71529;47.484;19.064;2023-08-24T14:30:49;8.20;;;6.53;;
82005;SDS011;71529;47.484;19.064;2023-08-24T14:33:17;14.68;;;9.68;;
82005;SDS011;71529;47.484;19.064;2023-08-24T14:35:49;15.35;;;10.15;;
82005;SDS011;71529;47.484;19.064;2023-08-24T14:38:20;14.27;;;10.98;;
82005;SDS011;71529;47.484;19.064;2023-08-24T14:40:48;15.32;;;9.07;;